createdAt,value
2022-11-05T00:02:13.751Z,8.80
2022-11-05T00:04:59.525Z,8.56
2022-11-05T00:07:50.020Z,8.35
2022-11-05T00:10:21.419Z,8.42
2022-11-05T00:13:07.777Z,8.51
2022-11-05T00:15:53.717Z,8.44
2022-11-05T00:18:23.768Z,8.47
2022-11-05T00:20:52.258Z,8.64
2022-11-05T00:23:38.116Z,8.70
2022-11-05T00:26:08.137Z,8.69
2022-11-05T00:28:37.216Z,8.63
2022-11-05T00:31:09.936Z,8.76
2022-11-05T00:33:40.823Z,8.72
2022-11-05T00:36:11.580Z,8.71
2022-11-05T00:38:40.095Z,8.68
2022-11-05T00:41:08.498Z,8.55
2022-11-05T00:43:54.217Z,8.19
2022-11-05T00:46:23.446Z,8.44
2022-11-05T00:49:10.746Z,8.25
2022-11-05T00:51:39.179Z,8.21
2022-11-05T00:54:07.597Z,8.20
2022-11-05T00:56:36.027Z,8.09
2022-11-05T00:59:04.443Z,8.19
2022-11-05T01:01:32.970Z,8.37
2022-11-05T01:04:02.916Z,8.50
2022-11-05T01:06:31.334Z,8.45
2022-11-05T01:08:59.873Z,8.62
2022-11-05T01:11:34.765Z,8.50
2022-11-05T01:14:05.945Z,8.41
2022-11-05T01:16:34.397Z,8.23
2022-11-05T01:19:05.674Z,8.49
2022-11-05T01:21:34.191Z,8.46
2022-11-05T01:24:03.505Z,8.35
2022-11-05T01:26:33.388Z,8.20
2022-11-05T01:29:02.078Z,8.19
2022-11-05T01:31:30.515Z,8.36
2022-11-05T01:33:58.925Z,8.33
2022-11-05T01:36:28.771Z,8.26
2022-11-05T01:38:57.213Z,8.29
2022-11-05T01:41:25.661Z,8.19
2022-11-05T01:43:56.558Z,8.28
2022-11-05T01:46:34.227Z,8.23
2022-11-05T01:49:08.245Z,8.21
2022-11-05T01:51:38.663Z,8.18
2022-11-05T01:54:11.628Z,8.18
2022-11-05T01:56:44.971Z,8.34
2022-11-05T01:59:17.736Z,8.28
2022-11-05T02:01:46.344Z,8.11
2022-11-05T02:04:19.697Z,8.01
2022-11-05T02:06:49.811Z,7.98
2022-11-05T02:09:22.779Z,7.85
2022-11-05T02:11:52.419Z,7.92
2022-11-05T02:14:21.547Z,7.81
2022-11-05T02:16:54.653Z,7.78
2022-11-05T02:19:49.336Z,7.76
2022-11-05T02:22:48.742Z,7.55
2022-11-05T02:25:54.636Z,7.62
2022-11-05T02:28:48.713Z,7.47
2022-11-05T02:31:23.667Z,7.37
2022-11-05T02:34:01.151Z,7.29
2022-11-05T02:36:41.213Z,7.49
2022-11-05T02:39:23.231Z,7.51
2022-11-05T02:42:05.518Z,7.40
2022-11-05T02:44:42.812Z,7.42
2022-11-05T02:47:23.983Z,7.45
2022-11-05T02:49:58.823Z,7.53
2022-11-05T02:52:34.536Z,7.63
2022-11-05T02:55:12.930Z,7.67
2022-11-05T02:57:45.812Z,7.76
2022-11-05T03:00:45.043Z,7.70
2022-11-05T03:03:19.776Z,7.64
2022-11-05T03:06:00.855Z,7.50
2022-11-05T03:08:41.997Z,7.55
2022-11-05T03:11:15.732Z,7.52
2022-11-05T03:13:54.535Z,7.48
2022-11-05T03:16:31.500Z,7.43
2022-11-05T03:19:09.526Z,7.58
2022-11-05T03:21:46.496Z,7.45
2022-11-05T03:24:18.433Z,7.25
2022-11-05T03:26:52.938Z,7.18
2022-11-05T03:29:26.772Z,7.21
2022-11-05T03:31:57.507Z,7.25
2022-11-05T03:34:32.495Z,7.26
2022-11-05T03:37:03.876Z,7.32
2022-11-05T03:39:35.820Z,7.24
2022-11-05T03:42:07.480Z,7.38
2022-11-05T03:44:40.714Z,7.44
2022-11-05T03:47:14.987Z,7.47
2022-11-05T03:49:55.435Z,7.17
2022-11-05T03:52:29.190Z,7.32
2022-11-05T03:54:57.810Z,7.31
2022-11-05T03:57:31.328Z,7.30
2022-11-05T03:59:59.805Z,7.32
2022-11-05T04:02:28.690Z,7.37
2022-11-05T04:04:59.472Z,7.24
2022-11-05T04:07:45.384Z,7.12
2022-11-05T04:10:31.530Z,7.18
2022-11-05T04:13:17.408Z,7.14
2022-11-05T04:16:03.389Z,7.06
2022-11-05T04:18:31.826Z,7.15
2022-11-05T04:21:19.037Z,7.11
2022-11-05T04:24:05.150Z,7.10
2022-11-05T04:26:33.584Z,7.07
2022-11-05T04:29:19.693Z,6.94
2022-11-05T04:31:48.451Z,6.62
2022-11-05T04:34:18.913Z,6.63
2022-11-05T04:36:49.939Z,6.68
2022-11-05T04:39:19.143Z,6.70
2022-11-05T04:41:49.190Z,6.55
2022-11-05T04:44:18.050Z,6.50
2022-11-05T04:46:46.459Z,6.64
2022-11-05T04:49:14.848Z,6.54
2022-11-05T04:51:43.326Z,6.77
2022-11-05T04:54:13.573Z,6.95
2022-11-05T04:56:42.466Z,6.82
2022-11-05T04:59:11.044Z,6.91
2022-11-05T05:04:42.023Z,6.85
2022-11-05T05:07:10.546Z,7.01
2022-11-05T05:09:40.378Z,7.05
2022-11-05T05:12:09.199Z,7.14
2022-11-05T05:14:37.715Z,7.09
2022-11-05T05:17:06.146Z,6.46
2022-11-05T05:19:54.586Z,6.45
2022-11-05T05:22:22.439Z,6.27
2022-11-05T05:24:53.130Z,6.44
2022-11-05T05:27:22.932Z,6.49
2022-11-05T05:29:51.510Z,6.53
2022-11-05T05:32:19.946Z,6.46
2022-11-05T05:34:48.391Z,6.41
2022-11-05T05:37:17.095Z,6.51
2022-11-05T05:39:46.213Z,6.42
2022-11-05T05:42:16.709Z,6.56
2022-11-05T05:44:45.140Z,6.41
2022-11-05T05:47:14.873Z,6.42
2022-11-05T05:49:43.310Z,6.46
2022-11-05T05:52:11.752Z,6.39
2022-11-05T05:54:42.931Z,6.42
2022-11-05T05:57:11.700Z,6.49
2022-11-05T05:59:41.537Z,6.75
2022-11-05T06:02:11.082Z,6.78
2022-11-05T06:04:39.641Z,6.72
2022-11-05T06:07:08.907Z,6.90
2022-11-05T06:09:37.315Z,6.91
2022-11-05T06:12:06.405Z,7.03
2022-11-05T06:14:34.932Z,6.90
2022-11-05T06:17:04.787Z,6.88
2022-11-05T06:19:33.211Z,6.67
2022-11-05T06:22:01.693Z,6.64
2022-11-05T06:24:30.318Z,6.75
2022-11-05T06:26:58.749Z,6.77
2022-11-05T06:29:27.172Z,6.39
2022-11-05T06:31:55.610Z,6.52
2022-11-05T06:34:25.493Z,6.72
2022-11-05T06:36:53.899Z,6.64
2022-11-05T06:39:22.358Z,6.69
2022-11-05T06:42:16.598Z,6.49
2022-11-05T06:44:39.368Z,6.51
2022-11-05T06:47:07.764Z,6.47
2022-11-05T06:49:37.627Z,6.55
2022-11-05T06:52:06.113Z,6.58
2022-11-05T06:54:34.533Z,6.37
2022-11-05T06:57:04.529Z,6.40
2022-11-05T06:59:33.125Z,6.39
2022-11-05T07:02:01.699Z,6.37
2022-11-05T07:04:30.194Z,6.02
2022-11-05T07:07:01.956Z,6.03
2022-11-05T07:09:30.478Z,5.93
2022-11-05T07:11:58.902Z,6.14
2022-11-05T07:14:27.470Z,6.25
2022-11-05T07:16:58.195Z,6.34
2022-11-05T07:19:26.619Z,6.50
2022-11-05T07:21:55.045Z,6.63
2022-11-05T07:24:24.868Z,6.69
2022-11-05T07:26:54.150Z,6.57
2022-11-05T07:29:22.574Z,6.52
2022-11-05T07:31:51.035Z,6.55
2022-11-05T07:34:19.477Z,6.58
2022-11-05T07:36:47.913Z,6.70
2022-11-05T07:39:16.690Z,6.80
2022-11-05T07:41:46.732Z,6.93
2022-11-05T07:44:15.583Z,6.93
2022-11-05T07:46:44.004Z,6.84
2022-11-05T07:49:12.703Z,6.81
2022-11-05T07:51:41.265Z,6.75
2022-11-05T07:54:10.423Z,6.36
2022-11-05T07:56:39.085Z,6.62
2022-11-05T07:59:09.119Z,6.59
2022-11-05T08:01:38.147Z,6.76
2022-11-05T08:04:06.698Z,7.04
2022-11-05T08:06:35.228Z,7.32
2022-11-05T08:09:04.226Z,7.59
2022-11-05T08:11:33.052Z,7.85
2022-11-05T08:14:01.496Z,7.74
2022-11-05T08:16:31.385Z,7.61
2022-11-05T08:18:59.834Z,7.33
2022-11-05T08:21:28.251Z,7.22
2022-11-05T08:23:56.716Z,7.85
2022-11-05T08:26:25.177Z,8.14
2022-11-05T08:28:53.935Z,8.34
2022-11-05T08:31:23.287Z,8.45
2022-11-05T08:33:57.151Z,8.35
2022-11-05T08:36:28.211Z,8.79
2022-11-05T08:38:57.230Z,8.84
2022-11-05T08:41:25.641Z,8.85
2022-11-05T08:43:56.396Z,8.78
2022-11-05T08:46:24.859Z,9.14
2022-11-05T08:48:54.673Z,9.35
2022-11-05T08:51:23.118Z,9.37
2022-11-05T08:53:51.705Z,9.65
2022-11-05T08:56:20.169Z,9.88
2022-11-05T08:58:48.591Z,10.29
2022-11-05T09:01:17.088Z,10.59
2022-11-05T09:03:45.572Z,11.67
2022-11-05T09:06:15.931Z,13.30
2022-11-05T09:08:44.356Z,16.49
2022-11-05T09:11:13.532Z,19.42
2022-11-05T09:13:41.968Z,21.25
2022-11-05T09:16:19.951Z,21.46
2022-11-05T09:18:49.445Z,23.46
2022-11-05T09:21:20.667Z,23.52
2022-11-05T09:23:49.457Z,25.84
2022-11-05T09:26:17.874Z,26.98
2022-11-05T09:28:46.303Z,27.83
2022-11-05T09:31:15.353Z,28.75
2022-11-05T09:33:43.743Z,29.57
2022-11-05T09:36:12.351Z,29.12
2022-11-05T09:38:42.174Z,28.46
2022-11-05T09:41:16.307Z,29.43
2022-11-05T09:43:49.472Z,30.06
2022-11-05T09:46:23.402Z,30.28
2022-11-05T09:48:56.556Z,29.95
2022-11-05T09:51:25.276Z,29.74
2022-11-05T09:53:55.353Z,30.41
2022-11-05T09:56:26.355Z,32.02
2022-11-05T09:58:59.834Z,31.69
2022-11-05T10:01:33.929Z,32.43
2022-11-05T10:04:08.956Z,32.36
2022-11-05T10:06:50.210Z,32.96
2022-11-05T10:09:25.348Z,31.19
2022-11-05T10:11:58.553Z,31.95
2022-11-05T10:14:30.345Z,31.61
2022-11-05T10:17:05.334Z,32.04
2022-11-05T10:19:40.718Z,33.15
2022-11-05T10:22:12.988Z,33.22
2022-11-05T10:24:46.542Z,32.86
2022-11-05T10:27:19.796Z,33.64
2022-11-05T10:29:49.422Z,33.66
2022-11-05T10:32:27.452Z,33.89
2022-11-05T10:34:58.789Z,33.44
2022-11-05T10:37:28.467Z,32.67
2022-11-05T10:39:58.657Z,33.98
2022-11-05T10:42:41.245Z,33.61
2022-11-05T10:45:21.798Z,32.67
2022-11-05T10:48:00.276Z,34.15
2022-11-05T10:50:31.285Z,34.65
2022-11-05T10:53:02.774Z,34.48
2022-11-05T10:55:35.880Z,33.67
2022-11-05T10:58:19.477Z,34.05
2022-11-05T11:01:02.955Z,32.72
2022-11-05T11:03:42.818Z,34.11
2022-11-05T11:06:24.474Z,33.02
2022-11-05T11:08:54.846Z,34.52
2022-11-05T11:11:32.209Z,33.44
2022-11-05T11:14:08.021Z,32.83
2022-11-05T11:16:41.628Z,32.33
2022-11-05T11:19:26.894Z,33.70
2022-11-05T11:22:14.535Z,34.22
2022-11-05T11:24:45.854Z,33.86
2022-11-05T11:27:19.636Z,33.36
2022-11-05T11:29:56.283Z,33.34
2022-11-05T11:32:28.823Z,34.28
2022-11-05T11:34:58.589Z,32.95
2022-11-05T11:37:31.975Z,33.84
2022-11-05T11:40:04.334Z,34.76
2022-11-05T11:42:37.899Z,34.49
2022-11-05T11:45:15.757Z,34.89
2022-11-05T11:47:46.071Z,33.75
2022-11-05T11:50:37.528Z,33.49
2022-11-05T11:53:30.308Z,32.45
2022-11-05T11:56:01.763Z,33.47
2022-11-05T11:58:44.196Z,32.37
2022-11-05T12:01:41.407Z,32.73
2022-11-05T12:04:39.588Z,32.37
2022-11-05T12:07:24.051Z,33.05
2022-11-05T12:10:04.923Z,32.88
2022-11-05T12:12:39.564Z,32.32
2022-11-05T12:15:29.801Z,31.95
2022-11-05T12:18:03.112Z,32.19
2022-11-05T12:20:50.048Z,32.79
2022-11-05T12:23:32.328Z,31.49
2022-11-05T12:26:09.693Z,30.48
2022-11-05T12:29:18.350Z,30.81
2022-11-05T12:32:01.068Z,30.10
2022-11-05T12:34:43.797Z,31.29
2022-11-05T12:37:23.218Z,32.29
2022-11-05T12:40:11.013Z,31.71
2022-11-05T12:42:53.307Z,29.25
2022-11-05T12:45:32.769Z,28.88
2022-11-05T12:48:16.395Z,28.05
2022-11-05T12:50:49.158Z,25.14
2022-11-05T12:53:32.752Z,24.63
2022-11-05T12:56:04.716Z,23.60
2022-11-05T12:58:39.857Z,22.89
2022-11-05T13:01:12.988Z,22.79
2022-11-05T13:03:49.164Z,21.95
2022-11-05T13:06:23.279Z,22.09
2022-11-05T13:09:00.969Z,22.11
2022-11-05T13:11:34.654Z,21.92
2022-11-05T13:14:11.262Z,21.90
2022-11-05T13:16:43.807Z,21.43
2022-11-05T13:19:19.815Z,21.21
2022-11-05T13:21:53.827Z,20.85
2022-11-05T13:24:26.555Z,20.99
2022-11-05T13:26:59.785Z,20.89
2022-11-05T13:29:34.227Z,20.46
2022-11-05T13:32:13.331Z,20.37
2022-11-05T13:34:43.594Z,20.20
2022-11-05T13:37:31.405Z,20.48
2022-11-05T13:40:03.427Z,20.36
2022-11-05T13:42:58.716Z,20.63
2022-11-05T13:45:49.995Z,20.69
2022-11-05T13:48:36.003Z,20.54
2022-11-05T13:51:41.795Z,20.71
2022-11-05T13:54:54.550Z,20.68
2022-11-05T13:57:58.654Z,20.44
2022-11-05T14:00:28.626Z,20.48
2022-11-05T14:03:00.845Z,20.66
2022-11-05T14:05:33.141Z,20.75
2022-11-05T14:08:10.488Z,20.83
2022-11-05T14:10:41.704Z,20.60
2022-11-05T14:13:21.404Z,20.43
2022-11-05T14:15:59.024Z,20.64
2022-11-05T14:18:40.641Z,20.86
2022-11-05T14:21:35.403Z,20.74
2022-11-05T14:24:40.034Z,20.83
2022-11-05T14:27:43.660Z,20.82
2022-11-05T14:30:44.962Z,20.88
2022-11-05T14:33:33.765Z,20.70
2022-11-05T14:36:29.564Z,20.78
2022-11-05T14:39:04.632Z,20.68
2022-11-05T14:41:53.347Z,20.74
2022-11-05T14:44:22.409Z,20.64
2022-11-05T14:46:54.531Z,20.52
2022-11-05T14:49:27.071Z,20.20
2022-11-05T14:51:57.834Z,19.93
2022-11-05T14:54:29.563Z,20.13
2022-11-05T14:57:02.249Z,19.56
2022-11-05T14:59:53.914Z,19.67
2022-11-05T15:02:26.458Z,19.79
2022-11-05T15:05:28.095Z,19.80
2022-11-05T15:07:58.543Z,19.95
2022-11-05T15:10:31.417Z,20.17
2022-11-05T15:13:06.407Z,20.18
2022-11-05T15:15:45.023Z,19.90
2022-11-05T15:18:20.418Z,19.84
2022-11-05T15:20:51.059Z,19.62
2022-11-05T15:23:22.727Z,19.65
2022-11-05T15:25:57.778Z,19.80
2022-11-05T15:28:35.244Z,19.88
2022-11-05T15:31:06.278Z,19.86
2022-11-05T15:33:34.860Z,19.79
2022-11-05T15:36:11.246Z,19.80
2022-11-05T15:38:56.583Z,19.75
2022-11-05T15:41:34.721Z,19.80
2022-11-05T15:44:04.628Z,19.70
2022-11-05T15:46:33.059Z,19.65
2022-11-05T15:49:09.038Z,19.64
2022-11-05T15:51:37.470Z,19.65
2022-11-05T15:54:28.988Z,19.71
2022-11-05T15:56:57.761Z,19.61
2022-11-05T15:59:30.758Z,19.55
2022-11-05T16:02:04.788Z,19.44
2022-11-05T16:04:35.896Z,19.39
2022-11-05T16:07:10.282Z,19.36
2022-11-05T16:09:41.306Z,19.36
2022-11-05T16:12:26.382Z,19.29
2022-11-05T16:15:01.818Z,19.15
2022-11-05T16:17:34.834Z,19.17
2022-11-05T16:20:03.370Z,19.12
2022-11-05T16:22:57.628Z,19.10
2022-11-05T16:25:33.006Z,18.89
2022-11-05T16:28:02.684Z,18.80
2022-11-05T16:30:32.700Z,18.63
2022-11-05T16:33:06.666Z,18.59
2022-11-05T16:35:35.219Z,18.47
2022-11-05T16:38:04.085Z,18.43
2022-11-05T16:40:32.510Z,18.32
2022-11-05T16:43:17.347Z,18.20
2022-11-05T16:45:47.756Z,18.15
2022-11-05T16:48:17.394Z,17.91
2022-11-05T16:50:46.247Z,17.71
2022-11-05T16:53:14.725Z,17.55
2022-11-05T16:55:45.002Z,17.55
2022-11-05T16:58:20.712Z,17.42
2022-11-05T17:00:52.790Z,17.25
2022-11-05T17:03:21.242Z,17.15
2022-11-05T17:05:49.845Z,17.11
2022-11-05T17:08:18.249Z,16.91
2022-11-05T17:10:46.905Z,16.74
2022-11-05T17:13:16.904Z,16.71
2022-11-05T17:15:48.750Z,16.58
2022-11-05T17:18:19.568Z,16.40
2022-11-05T17:20:50.273Z,16.32
2022-11-05T17:23:20.627Z,16.19
2022-11-05T17:25:50.940Z,16.07
2022-11-05T17:28:20.523Z,16.04
2022-11-05T17:30:52.979Z,15.98
2022-11-05T17:33:24.332Z,15.89
2022-11-05T17:35:53.625Z,15.64
2022-11-05T17:38:23.050Z,15.56
2022-11-05T17:40:51.669Z,15.44
2022-11-05T17:43:20.477Z,15.39
2022-11-05T17:45:52.069Z,15.33
2022-11-05T17:48:22.676Z,15.22
2022-11-05T17:50:52.111Z,15.11
2022-11-05T17:53:21.265Z,14.97
2022-11-05T17:55:50.067Z,15.04
2022-11-05T17:58:19.215Z,15.06
2022-11-05T18:00:48.759Z,15.07
2022-11-05T18:03:17.414Z,15.00
2022-11-05T18:05:47.404Z,14.92
2022-11-05T18:08:15.919Z,14.77
2022-11-05T18:10:44.394Z,14.75
2022-11-05T18:13:13.249Z,14.75
2022-11-05T18:15:42.150Z,14.60
2022-11-05T18:18:12.330Z,14.44
2022-11-05T18:20:40.740Z,14.47
2022-11-05T18:23:11.477Z,14.23
2022-11-05T18:25:41.595Z,14.37
2022-11-05T18:28:10.421Z,14.33
2022-11-05T18:30:40.022Z,14.23
2022-11-05T18:33:08.886Z,14.20
2022-11-05T18:35:42.185Z,14.18
2022-11-05T18:38:12.302Z,14.17
2022-11-05T18:40:41.067Z,14.03
2022-11-05T18:43:09.846Z,13.97
2022-11-05T18:45:38.592Z,13.98
2022-11-05T18:48:07.577Z,13.98
2022-11-05T18:50:36.036Z,13.92
2022-11-05T18:53:04.540Z,13.91
2022-11-05T18:55:34.387Z,13.87
2022-11-05T18:58:05.802Z,13.86
2022-11-05T19:00:34.564Z,13.67
2022-11-05T19:03:03.008Z,13.58
2022-11-05T19:05:31.535Z,13.54
2022-11-05T19:08:00.121Z,13.41
2022-11-05T19:10:29.300Z,13.39
2022-11-05T19:12:59.155Z,13.12
2022-11-05T19:15:27.552Z,12.82
2022-11-05T19:17:55.974Z,13.00
2022-11-05T19:20:24.555Z,13.00
2022-11-05T19:22:52.988Z,12.99
2022-11-05T19:25:21.414Z,12.85
2022-11-05T19:27:49.930Z,12.81
2022-11-05T19:30:19.943Z,12.86
2022-11-05T19:32:48.384Z,12.89
2022-11-05T19:35:16.903Z,12.85
2022-11-05T19:37:45.342Z,12.82
2022-11-05T19:40:13.795Z,12.80
2022-11-05T19:42:42.589Z,12.74
2022-11-05T19:45:38.344Z,12.74
2022-11-05T19:48:01.904Z,12.56
2022-11-05T19:50:30.355Z,12.59
2022-11-05T19:52:58.918Z,12.59
2022-11-05T19:55:27.361Z,12.34
2022-11-05T19:57:55.877Z,12.02
2022-11-05T20:00:24.287Z,11.88
2022-11-05T20:02:52.808Z,11.82
2022-11-05T20:05:22.768Z,11.80
2022-11-05T20:07:53.091Z,11.87
2022-11-05T20:10:21.967Z,11.70
2022-11-05T20:12:50.696Z,11.71
2022-11-05T20:15:19.933Z,11.79
2022-11-05T20:17:52.416Z,11.82
2022-11-05T20:20:22.876Z,11.79
2022-11-05T20:22:53.565Z,11.72
2022-11-05T20:25:21.999Z,11.57
2022-11-05T20:27:50.579Z,11.57
2022-11-05T20:30:20.015Z,11.52
2022-11-05T20:32:48.475Z,11.53
2022-11-05T20:35:16.927Z,11.40
2022-11-05T20:37:51.182Z,11.09
2022-11-05T20:40:22.811Z,11.11
2022-11-05T20:42:53.338Z,11.18
2022-11-05T20:45:21.781Z,11.02
2022-11-05T20:47:50.208Z,10.94
2022-11-05T20:50:18.864Z,10.83
2022-11-05T20:52:49.154Z,10.76
2022-11-05T20:55:17.655Z,10.62
2022-11-05T20:57:46.057Z,10.52
2022-11-05T21:00:15.817Z,10.38
2022-11-05T21:02:44.432Z,10.65
2022-11-05T21:05:13.069Z,10.57
2022-11-05T21:07:41.522Z,10.63
2022-11-05T21:10:12.083Z,10.63
2022-11-05T21:12:40.589Z,10.79
2022-11-05T21:15:10.628Z,10.82
2022-11-05T21:17:39.099Z,10.85
2022-11-05T21:20:08.337Z,10.95
2022-11-05T21:22:36.777Z,10.95
2022-11-05T21:25:05.991Z,10.86
2022-11-05T21:27:37.933Z,10.71
2022-11-05T21:30:09.704Z,10.72
2022-11-05T21:32:38.555Z,10.79
2022-11-05T21:35:07.710Z,10.83
2022-11-05T21:37:37.535Z,10.70
2022-11-05T21:40:06.450Z,10.69
2022-11-05T21:42:36.307Z,10.72
2022-11-05T21:45:05.374Z,10.68
2022-11-05T21:47:33.907Z,10.63
2022-11-05T21:50:02.365Z,10.44
2022-11-05T21:52:48.361Z,10.15
2022-11-05T21:55:34.344Z,10.05
2022-11-05T21:58:28.603Z,10.09
2022-11-05T22:00:57.025Z,9.81
2022-11-05T22:03:25.621Z,9.83
2022-11-05T22:05:54.503Z,9.77
2022-11-05T22:08:22.922Z,9.68
2022-11-05T22:10:51.399Z,9.83
2022-11-05T22:13:21.419Z,10.03
2022-11-05T22:15:56.543Z,10.03
2022-11-05T22:18:25.264Z,10.00
2022-11-05T22:20:53.814Z,9.94
2022-11-05T22:23:22.350Z,9.84
2022-11-05T22:25:50.910Z,9.70
2022-11-05T22:28:21.386Z,9.63
2022-11-05T22:30:49.954Z,9.54
2022-11-05T22:33:18.647Z,9.44
2022-11-05T22:35:47.050Z,9.63
2022-11-05T22:38:15.607Z,9.45
2022-11-05T22:40:44.157Z,9.45
2022-11-05T22:43:12.575Z,9.41
2022-11-05T22:45:43.922Z,9.50
2022-11-05T22:48:12.582Z,9.37
2022-11-05T22:50:41.326Z,9.55
2022-11-05T22:53:09.823Z,9.54
2022-11-05T22:55:40.764Z,9.64
2022-11-05T22:58:11.794Z,9.67
2022-11-05T23:00:40.482Z,9.56
2022-11-05T23:03:10.469Z,9.63
2022-11-05T23:05:39.060Z,9.74
2022-11-05T23:08:24.947Z,9.76
2022-11-05T23:11:23.383Z,9.81
2022-11-05T23:13:52.220Z,9.85
2022-11-05T23:16:38.317Z,9.70
2022-11-05T23:19:25.559Z,9.46
2022-11-05T23:22:11.577Z,9.17
2022-11-05T23:24:40.110Z,9.07
2022-11-05T23:27:09.052Z,9.12
2022-11-05T23:29:37.529Z,9.30
2022-11-05T23:32:23.434Z,9.26
2022-11-05T23:34:54.463Z,9.18
2022-11-05T23:37:41.882Z,9.09
2022-11-05T23:40:13.818Z,9.28
2022-11-05T23:43:14.144Z,9.16
2022-11-05T23:46:01.862Z,9.14
2022-11-05T23:48:34.391Z,9.29
2022-11-05T23:51:07.907Z,9.41
2022-11-05T23:53:51.848Z,9.55
2022-11-05T23:56:20.291Z,9.63
2022-11-05T23:58:48.848Z,9.44
